Startpagina
METAR-TAF:

METAR-TAF

Vliegvelden :

Guatemala-stad, Guatemala

breedte: 14-35N, lengte: 090-31W, hoogte: 1489 m

Actueel weer

Dit bericht is 47 minuten geleden gemaakt, om 00:00 UTC
Wind 10 kt uit het noorden
Temperatuur 21°C
Vochtigheid 73%
Druk 1025 hPa
Zicht 10 km of meer
Weinig wolken op 1800 ft
Gebroken wolken op 20000 ft

METAR: MGGT 270000Z 36010KT 9999 FEW018 BKN200 21/16 Q1025 A3027 PCPN SW

Tijdstip: 18:47 (00:47 UTC)

Verwachting

Verwachting geldig van 27 om 00 UTC tot 27 om 24 UTC
Wind 10 kt uit het noorden
Zicht 10 km of meer
Verspreide wolken op 1600 ft
Kans 30% :
Tijdelijke
van 27 om 00 UTC tot 27 om 09 UTC
Zicht: 8000 m
Gebroken wolken op 1200 ft
regen, motregen
Wijzigt naar
van 27 om 03 UTC tot 27 om 05 UTC
Wind 6 kt uit het noordnoordoosten
Weinig wolken op 1800 ft
Van 27 om 1400 UTC
Wind 10 kt uit het noorden

TAF: MGGT 2700/2724 36010KT 9999 SCT016 TX27/2720Z TN18/2712Z PROB30 TEMPO 2700/2709 8000 RADZ BKN012 BECMG 2703/2705 02006KT FEW018 FM271400 36010KT

Waarnemingen en weersverwachtingen van meer dan 4000 vliegvelden (METAR en TAF).

De beschikbare stations zijn de gele en rode punten op de kaart.

Ga met uw muis naar het station om de naam te zien.

Klik dan om waarnemingen en weersverwachtingen te zien.

kaart wijzigen: klik op de groene knoppen met een zwart kruis om in te zoomen, op de groene knop met een streepje om uit te zoomen of op de groene pijlen voor aangrenzende kaarten.


METAR-TAF: